sensor_id;sensor_type;location;lat;lon;timestamp;P1;durP1;ratioP1;P2;durP2;ratioP2
76552;SDS011;65395;53.168;18.156;2023-07-20T00:01:51;4.90;;;4.00;;
76552;SDS011;65395;53.168;18.156;2023-07-20T00:04:18;4.60;;;3.50;;
76552;SDS011;65395;53.168;18.156;2023-07-20T00:06:44;5.30;;;3.70;;
76552;SDS011;65395;53.168;18.156;2023-07-20T00:09:11;7.20;;;4.10;;
76552;SDS011;65395;53.168;18.156;2023-07-20T00:11:39;5.50;;;3.80;;
76552;SDS011;65395;53.168;18.156;2023-07-20T00:14:06;4.90;;;3.50;;
76552;SDS011;65395;53.168;18.156;2023-07-20T00:16:33;7.20;;;3.80;;
76552;SDS011;65395;53.168;18.156;2023-07-20T00:18:59;5.50;;;3.90;;
76552;SDS011;65395;53.168;18.156;2023-07-20T00:21:26;4.60;;;4.00;;
76552;SDS011;65395;53.168;18.156;2023-07-20T00:23:53;16.40;;;9.00;;
76552;SDS011;65395;53.168;18.156;2023-07-20T00:26:20;12.90;;;6.80;;
76552;SDS011;65395;53.168;18.156;2023-07-20T00:28:48;5.60;;;4.10;;
76552;SDS011;65395;53.168;18.156;2023-07-20T00:31:19;4.80;;;4.10;;
76552;SDS011;65395;53.168;18.156;2023-07-20T00:33:46;4.90;;;4.40;;
76552;SDS011;65395;53.168;18.156;2023-07-20T00:36:13;5.30;;;3.80;;
76552;SDS011;65395;53.168;18.156;2023-07-20T00:38:42;6.50;;;4.10;;
76552;SDS011;65395;53.168;18.156;2023-07-20T00:41:09;6.30;;;4.40;;
76552;SDS011;65395;53.168;18.156;2023-07-20T00:43:36;5.90;;;4.20;;
76552;SDS011;65395;53.168;18.156;2023-07-20T00:46:02;5.80;;;4.10;;
76552;SDS011;65395;53.168;18.156;2023-07-20T00:48:30;5.70;;;3.80;;
76552;SDS011;65395;53.168;18.156;2023-07-20T00:50:58;6.30;;;4.50;;
76552;SDS011;65395;53.168;18.156;2023-07-20T00:53:26;5.50;;;4.50;;
76552;SDS011;65395;53.168;18.156;2023-07-20T00:55:53;8.00;;;5.50;;
76552;SDS011;65395;53.168;18.156;2023-07-20T00:58:21;9.60;;;6.00;;
76552;SDS011;65395;53.168;18.156;2023-07-20T01:00:48;7.00;;;6.20;;
76552;SDS011;65395;53.168;18.156;2023-07-20T01:03:15;9.30;;;6.10;;
76552;SDS011;65395;53.168;18.156;2023-07-20T01:08:33;8.70;;;5.40;;
76552;SDS011;65395;53.168;18.156;2023-07-20T01:11:17;6.70;;;5.30;;
76552;SDS011;65395;53.168;18.156;2023-07-20T01:13:55;6.40;;;4.80;;
76552;SDS011;65395;53.168;18.156;2023-07-20T01:16:21;6.50;;;4.70;;
76552;SDS011;65395;53.168;18.156;2023-07-20T01:18:48;7.30;;;5.60;;
76552;SDS011;65395;53.168;18.156;2023-07-20T01:21:18;7.70;;;6.30;;
76552;SDS011;65395;53.168;18.156;2023-07-20T01:24:00;7.10;;;5.20;;
76552;SDS011;65395;53.168;18.156;2023-07-20T01:26:48;7.70;;;5.30;;
76552;SDS011;65395;53.168;18.156;2023-07-20T01:32:14;5.90;;;4.80;;
76552;SDS011;65395;53.168;18.156;2023-07-20T01:34:44;7.70;;;5.00;;
76552;SDS011;65395;53.168;18.156;2023-07-20T01:37:12;7.30;;;4.50;;
76552;SDS011;65395;53.168;18.156;2023-07-20T01:39:39;5.90;;;4.80;;
76552;SDS011;65395;53.168;18.156;2023-07-20T01:42:06;8.30;;;5.10;;
76552;SDS011;65395;53.168;18.156;2023-07-20T01:44:33;6.20;;;5.20;;
76552;SDS011;65395;53.168;18.156;2023-07-20T01:47:00;5.10;;;4.60;;
76552;SDS011;65395;53.168;18.156;2023-07-20T01:49:26;9.60;;;6.40;;
76552;SDS011;65395;53.168;18.156;2023-07-20T01:51:54;9.80;;;7.60;;
76552;SDS011;65395;53.168;18.156;2023-07-20T01:54:21;9.20;;;7.50;;
76552;SDS011;65395;53.168;18.156;2023-07-20T01:56:48;10.30;;;7.20;;
76552;SDS011;65395;53.168;18.156;2023-07-20T01:59:14;8.40;;;6.80;;
76552;SDS011;65395;53.168;18.156;2023-07-20T02:01:41;8.30;;;6.70;;
76552;SDS011;65395;53.168;18.156;2023-07-20T02:04:08;7.40;;;6.30;;
76552;SDS011;65395;53.168;18.156;2023-07-20T02:06:34;7.50;;;6.10;;
76552;SDS011;65395;53.168;18.156;2023-07-20T02:09:01;7.80;;;6.20;;
76552;SDS011;65395;53.168;18.156;2023-07-20T02:11:31;7.00;;;6.30;;
76552;SDS011;65395;53.168;18.156;2023-07-20T02:13:58;8.90;;;6.50;;
76552;SDS011;65395;53.168;18.156;2023-07-20T02:16:25;9.10;;;6.90;;
76552;SDS011;65395;53.168;18.156;2023-07-20T02:18:52;8.90;;;6.60;;
76552;SDS011;65395;53.168;18.156;2023-07-20T02:21:19;8.90;;;6.40;;
76552;SDS011;65395;53.168;18.156;2023-07-20T02:23:45;8.80;;;6.40;;
76552;SDS011;65395;53.168;18.156;2023-07-20T02:26:12;8.20;;;6.40;;
76552;SDS011;65395;53.168;18.156;2023-07-20T02:28:39;8.00;;;7.00;;
76552;SDS011;65395;53.168;18.156;2023-07-20T02:31:07;8.50;;;7.50;;
76552;SDS011;65395;53.168;18.156;2023-07-20T02:33:34;9.20;;;7.00;;
76552;SDS011;65395;53.168;18.156;2023-07-20T02:36:00;9.10;;;7.20;;
76552;SDS011;65395;53.168;18.156;2023-07-20T02:38:27;9.80;;;7.40;;
76552;SDS011;65395;53.168;18.156;2023-07-20T02:40:54;9.60;;;7.20;;
76552;SDS011;65395;53.168;18.156;2023-07-20T02:43:21;9.00;;;7.00;;
76552;SDS011;65395;53.168;18.156;2023-07-20T02:45:47;12.10;;;7.20;;
76552;SDS011;65395;53.168;18.156;2023-07-20T02:48:14;10.30;;;6.60;;
76552;SDS011;65395;53.168;18.156;2023-07-20T02:50:43;7.40;;;5.80;;
76552;SDS011;65395;53.168;18.156;2023-07-20T02:53:10;9.10;;;5.10;;
76552;SDS011;65395;53.168;18.156;2023-07-20T02:55:37;9.10;;;5.00;;
76552;SDS011;65395;53.168;18.156;2023-07-20T02:58:03;8.70;;;4.60;;
76552;SDS011;65395;53.168;18.156;2023-07-20T03:00:30;5.70;;;4.50;;
76552;SDS011;65395;53.168;18.156;2023-07-20T03:02:57;6.40;;;3.80;;
76552;SDS011;65395;53.168;18.156;2023-07-20T03:05:24;9.10;;;3.70;;
76552;SDS011;65395;53.168;18.156;2023-07-20T03:07:51;6.40;;;3.70;;
76552;SDS011;65395;53.168;18.156;2023-07-20T03:10:18;6.60;;;3.90;;
76552;SDS011;65395;53.168;18.156;2023-07-20T03:12:45;6.60;;;3.50;;
76552;SDS011;65395;53.168;18.156;2023-07-20T03:15:12;4.80;;;3.30;;
76552;SDS011;65395;53.168;18.156;2023-07-20T03:17:39;4.20;;;3.30;;
76552;SDS011;65395;53.168;18.156;2023-07-20T03:20:06;6.00;;;3.90;;
76552;SDS011;65395;53.168;18.156;2023-07-20T03:22:36;4.70;;;3.50;;
76552;SDS011;65395;53.168;18.156;2023-07-20T03:25:03;4.70;;;3.40;;
76552;SDS011;65395;53.168;18.156;2023-07-20T03:27:30;5.40;;;3.40;;
76552;SDS011;65395;53.168;18.156;2023-07-20T03:29:58;4.90;;;3.40;;
76552;SDS011;65395;53.168;18.156;2023-07-20T03:32:25;5.00;;;3.60;;
76552;SDS011;65395;53.168;18.156;2023-07-20T03:34:52;7.60;;;3.10;;
76552;SDS011;65395;53.168;18.156;2023-07-20T03:37:18;9.00;;;3.80;;
76552;SDS011;65395;53.168;18.156;2023-07-20T03:39:45;4.70;;;3.30;;
76552;SDS011;65395;53.168;18.156;2023-07-20T03:42:12;9.40;;;3.30;;
76552;SDS011;65395;53.168;18.156;2023-07-20T03:44:39;7.50;;;3.30;;
76552;SDS011;65395;53.168;18.156;2023-07-20T03:47:07;6.30;;;2.80;;
76552;SDS011;65395;53.168;18.156;2023-07-20T03:49:35;10.70;;;3.00;;
76552;SDS011;65395;53.168;18.156;2023-07-20T03:52:02;6.90;;;3.10;;
76552;SDS011;65395;53.168;18.156;2023-07-20T03:54:30;4.80;;;3.00;;
76552;SDS011;65395;53.168;18.156;2023-07-20T03:56:57;4.50;;;3.00;;
76552;SDS011;65395;53.168;18.156;2023-07-20T03:59:24;3.80;;;2.80;;
76552;SDS011;65395;53.168;18.156;2023-07-20T04:01:51;4.10;;;2.80;;
76552;SDS011;65395;53.168;18.156;2023-07-20T04:04:18;5.60;;;3.10;;
76552;SDS011;65395;53.168;18.156;2023-07-20T04:06:45;4.60;;;2.80;;
76552;SDS011;65395;53.168;18.156;2023-07-20T04:09:13;4.00;;;2.60;;
76552;SDS011;65395;53.168;18.156;2023-07-20T04:11:39;6.60;;;2.80;;
76552;SDS011;65395;53.168;18.156;2023-07-20T04:14:07;4.50;;;2.50;;
76552;SDS011;65395;53.168;18.156;2023-07-20T04:16:33;4.30;;;2.90;;
76552;SDS011;65395;53.168;18.156;2023-07-20T04:19:00;5.40;;;2.80;;
76552;SDS011;65395;53.168;18.156;2023-07-20T04:21:27;4.20;;;2.50;;
76552;SDS011;65395;53.168;18.156;2023-07-20T04:23:54;4.70;;;2.60;;
76552;SDS011;65395;53.168;18.156;2023-07-20T04:26:21;7.50;;;3.00;;
76552;SDS011;65395;53.168;18.156;2023-07-20T04:28:49;7.70;;;2.60;;
76552;SDS011;65395;53.168;18.156;2023-07-20T04:31:29;6.00;;;2.60;;
76552;SDS011;65395;53.168;18.156;2023-07-20T04:33:58;6.70;;;3.00;;
76552;SDS011;65395;53.168;18.156;2023-07-20T04:36:25;6.40;;;2.70;;
76552;SDS011;65395;53.168;18.156;2023-07-20T04:38:53;8.60;;;2.90;;
76552;SDS011;65395;53.168;18.156;2023-07-20T04:41:21;8.50;;;2.90;;
76552;SDS011;65395;53.168;18.156;2023-07-20T04:43:49;8.10;;;2.80;;
76552;SDS011;65395;53.168;18.156;2023-07-20T04:46:22;7.20;;;3.10;;
76552;SDS011;65395;53.168;18.156;2023-07-20T04:48:50;11.50;;;3.10;;
76552;SDS011;65395;53.168;18.156;2023-07-20T04:51:17;7.80;;;2.90;;
76552;SDS011;65395;53.168;18.156;2023-07-20T04:53:48;7.20;;;3.00;;
76552;SDS011;65395;53.168;18.156;2023-07-20T04:56:15;7.50;;;3.20;;
76552;SDS011;65395;53.168;18.156;2023-07-20T04:58:42;8.30;;;3.20;;
76552;SDS011;65395;53.168;18.156;2023-07-20T05:01:09;7.00;;;3.10;;
76552;SDS011;65395;53.168;18.156;2023-07-20T05:03:36;6.30;;;3.40;;
76552;SDS011;65395;53.168;18.156;2023-07-20T05:06:03;11.90;;;3.20;;
76552;SDS011;65395;53.168;18.156;2023-07-20T05:08:29;7.00;;;3.10;;
76552;SDS011;65395;53.168;18.156;2023-07-20T05:10:56;10.30;;;2.80;;
76552;SDS011;65395;53.168;18.156;2023-07-20T05:13:23;5.30;;;2.50;;
76552;SDS011;65395;53.168;18.156;2023-07-20T05:15:51;5.90;;;2.50;;
76552;SDS011;65395;53.168;18.156;2023-07-20T05:18:19;4.50;;;2.10;;
76552;SDS011;65395;53.168;18.156;2023-07-20T05:20:47;4.40;;;2.20;;
76552;SDS011;65395;53.168;18.156;2023-07-20T05:23:18;3.50;;;2.00;;
76552;SDS011;65395;53.168;18.156;2023-07-20T05:25:46;7.80;;;2.10;;
76552;SDS011;65395;53.168;18.156;2023-07-20T05:28:13;11.50;;;2.10;;
76552;SDS011;65395;53.168;18.156;2023-07-20T05:30:40;8.90;;;2.20;;
76552;SDS011;65395;53.168;18.156;2023-07-20T05:33:07;4.50;;;2.20;;
76552;SDS011;65395;53.168;18.156;2023-07-20T05:35:33;2.20;;;1.80;;
76552;SDS011;65395;53.168;18.156;2023-07-20T05:38:03;3.30;;;1.70;;
76552;SDS011;65395;53.168;18.156;2023-07-20T05:40:31;7.20;;;2.00;;
76552;SDS011;65395;53.168;18.156;2023-07-20T05:42:57;3.50;;;1.70;;
76552;SDS011;65395;53.168;18.156;2023-07-20T05:45:25;3.20;;;1.70;;
76552;SDS011;65395;53.168;18.156;2023-07-20T05:47:51;7.70;;;2.20;;
76552;SDS011;65395;53.168;18.156;2023-07-20T05:50:18;5.80;;;2.00;;
76552;SDS011;65395;53.168;18.156;2023-07-20T05:52:44;9.60;;;2.20;;
76552;SDS011;65395;53.168;18.156;2023-07-20T05:55:11;9.00;;;2.10;;
76552;SDS011;65395;53.168;18.156;2023-07-20T05:57:38;7.50;;;1.70;;
76552;SDS011;65395;53.168;18.156;2023-07-20T06:00:08;6.10;;;1.70;;
76552;SDS011;65395;53.168;18.156;2023-07-20T06:02:38;12.30;;;2.30;;
76552;SDS011;65395;53.168;18.156;2023-07-20T06:05:06;9.00;;;1.90;;
76552;SDS011;65395;53.168;18.156;2023-07-20T06:07:36;16.70;;;2.70;;
76552;SDS011;65395;53.168;18.156;2023-07-20T06:10:04;8.00;;;2.10;;
76552;SDS011;65395;53.168;18.156;2023-07-20T06:12:32;3.90;;;1.80;;
76552;SDS011;65395;53.168;18.156;2023-07-20T06:15:03;4.30;;;1.80;;
76552;SDS011;65395;53.168;18.156;2023-07-20T06:17:31;7.70;;;1.90;;
76552;SDS011;65395;53.168;18.156;2023-07-20T06:19:58;3.10;;;1.40;;
76552;SDS011;65395;53.168;18.156;2023-07-20T06:22:25;4.70;;;1.70;;
76552;SDS011;65395;53.168;18.156;2023-07-20T06:24:52;3.00;;;1.70;;
76552;SDS011;65395;53.168;18.156;2023-07-20T06:27:18;2.80;;;1.70;;
76552;SDS011;65395;53.168;18.156;2023-07-20T06:29:45;2.10;;;1.60;;
76552;SDS011;65395;53.168;18.156;2023-07-20T06:32:11;3.30;;;1.70;;
76552;SDS011;65395;53.168;18.156;2023-07-20T06:34:40;3.10;;;1.70;;
76552;SDS011;65395;53.168;18.156;2023-07-20T06:37:06;3.50;;;1.60;;
76552;SDS011;65395;53.168;18.156;2023-07-20T06:39:33;3.10;;;1.60;;
76552;SDS011;65395;53.168;18.156;2023-07-20T06:42:00;3.40;;;1.40;;
76552;SDS011;65395;53.168;18.156;2023-07-20T06:44:26;4.50;;;1.40;;
76552;SDS011;65395;53.168;18.156;2023-07-20T06:46:53;3.00;;;1.70;;
76552;SDS011;65395;53.168;18.156;2023-07-20T06:49:23;2.70;;;1.30;;
76552;SDS011;65395;53.168;18.156;2023-07-20T06:51:53;2.20;;;1.30;;
76552;SDS011;65395;53.168;18.156;2023-07-20T06:54:20;4.30;;;1.70;;
76552;SDS011;65395;53.168;18.156;2023-07-20T06:56:47;8.60;;;1.70;;
76552;SDS011;65395;53.168;18.156;2023-07-20T06:59:13;6.50;;;1.70;;
76552;SDS011;65395;53.168;18.156;2023-07-20T07:01:40;4.40;;;1.30;;
76552;SDS011;65395;53.168;18.156;2023-07-20T07:04:07;2.30;;;1.10;;
76552;SDS011;65395;53.168;18.156;2023-07-20T07:06:33;4.20;;;1.30;;
76552;SDS011;65395;53.168;18.156;2023-07-20T07:09:01;3.20;;;1.30;;
76552;SDS011;65395;53.168;18.156;2023-07-20T07:11:27;4.80;;;1.90;;
76552;SDS011;65395;53.168;18.156;2023-07-20T07:13:54;6.10;;;2.30;;
76552;SDS011;65395;53.168;18.156;2023-07-20T07:16:21;4.30;;;1.90;;
76552;SDS011;65395;53.168;18.156;2023-07-20T07:18:47;3.90;;;2.20;;
76552;SDS011;65395;53.168;18.156;2023-07-20T07:21:16;5.80;;;2.10;;
76552;SDS011;65395;53.168;18.156;2023-07-20T07:23:45;3.80;;;1.80;;
76552;SDS011;65395;53.168;18.156;2023-07-20T07:26:12;5.90;;;1.70;;
76552;SDS011;65395;53.168;18.156;2023-07-20T07:28:39;4.10;;;1.90;;
76552;SDS011;65395;53.168;18.156;2023-07-20T07:31:06;3.00;;;1.90;;
76552;SDS011;65395;53.168;18.156;2023-07-20T07:33:33;4.90;;;2.10;;
76552;SDS011;65395;53.168;18.156;2023-07-20T07:36:01;4.40;;;1.80;;
76552;SDS011;65395;53.168;18.156;2023-07-20T07:38:28;2.50;;;1.80;;
76552;SDS011;65395;53.168;18.156;2023-07-20T07:40:55;4.00;;;1.90;;
76552;SDS011;65395;53.168;18.156;2023-07-20T07:43:22;5.80;;;1.70;;
76552;SDS011;65395;53.168;18.156;2023-07-20T07:45:49;3.50;;;1.80;;
76552;SDS011;65395;53.168;18.156;2023-07-20T07:48:15;2.00;;;1.30;;
76552;SDS011;65395;53.168;18.156;2023-07-20T07:50:43;3.20;;;1.60;;
76552;SDS011;65395;53.168;18.156;2023-07-20T07:53:10;2.30;;;1.60;;
76552;SDS011;65395;53.168;18.156;2023-07-20T07:55:37;3.40;;;1.60;;
76552;SDS011;65395;53.168;18.156;2023-07-20T07:58:03;1.70;;;1.50;;
76552;SDS011;65395;53.168;18.156;2023-07-20T08:00:30;2.80;;;1.70;;
76552;SDS011;65395;53.168;18.156;2023-07-20T08:02:57;2.30;;;1.50;;
76552;SDS011;65395;53.168;18.156;2023-07-20T08:05:25;2.20;;;1.50;;
76552;SDS011;65395;53.168;18.156;2023-07-20T08:07:52;3.30;;;1.70;;
76552;SDS011;65395;53.168;18.156;2023-07-20T08:10:19;4.10;;;1.10;;
76552;SDS011;65395;53.168;18.156;2023-07-20T08:12:46;1.80;;;1.20;;
76552;SDS011;65395;53.168;18.156;2023-07-20T08:15:12;2.50;;;1.20;;
76552;SDS011;65395;53.168;18.156;2023-07-20T08:17:41;2.70;;;1.20;;
76552;SDS011;65395;53.168;18.156;2023-07-20T08:20:08;1.90;;;1.00;;
76552;SDS011;65395;53.168;18.156;2023-07-20T08:22:38;2.00;;;1.20;;
76552;SDS011;65395;53.168;18.156;2023-07-20T08:25:06;2.10;;;1.10;;
76552;SDS011;65395;53.168;18.156;2023-07-20T08:27:33;0.80;;;0.80;;
76552;SDS011;65395;53.168;18.156;2023-07-20T08:29:59;1.60;;;0.90;;
76552;SDS011;65395;53.168;18.156;2023-07-20T08:32:26;2.70;;;0.90;;
76552;SDS011;65395;53.168;18.156;2023-07-20T08:34:53;2.10;;;0.90;;
76552;SDS011;65395;53.168;18.156;2023-07-20T08:37:20;1.40;;;1.00;;
76552;SDS011;65395;53.168;18.156;2023-07-20T08:39:46;2.00;;;0.90;;
76552;SDS011;65395;53.168;18.156;2023-07-20T08:42:14;1.90;;;0.90;;
76552;SDS011;65395;53.168;18.156;2023-07-20T08:44:41;2.90;;;0.90;;
76552;SDS011;65395;53.168;18.156;2023-07-20T08:47:09;1.40;;;0.90;;
76552;SDS011;65395;53.168;18.156;2023-07-20T08:49:38;1.10;;;0.80;;
76552;SDS011;65395;53.168;18.156;2023-07-20T08:52:06;1.40;;;0.70;;
76552;SDS011;65395;53.168;18.156;2023-07-20T08:54:33;1.70;;;1.00;;
76552;SDS011;65395;53.168;18.156;2023-07-20T08:57:01;3.10;;;1.00;;
76552;SDS011;65395;53.168;18.156;2023-07-20T08:59:30;1.50;;;0.80;;
76552;SDS011;65395;53.168;18.156;2023-07-20T09:01:58;1.50;;;0.80;;
76552;SDS011;65395;53.168;18.156;2023-07-20T09:04:26;1.10;;;0.90;;
76552;SDS011;65395;53.168;18.156;2023-07-20T09:06:53;1.80;;;1.00;;
76552;SDS011;65395;53.168;18.156;2023-07-20T09:09:20;1.10;;;1.00;;
76552;SDS011;65395;53.168;18.156;2023-07-20T09:11:48;3.40;;;1.40;;
76552;SDS011;65395;53.168;18.156;2023-07-20T09:14:16;4.00;;;1.10;;
76552;SDS011;65395;53.168;18.156;2023-07-20T09:16:52;1.60;;;1.10;;
76552;SDS011;65395;53.168;18.156;2023-07-20T09:19:21;2.80;;;1.20;;
76552;SDS011;65395;53.168;18.156;2023-07-20T09:21:48;2.80;;;1.30;;
76552;SDS011;65395;53.168;18.156;2023-07-20T09:24:17;2.60;;;1.20;;
76552;SDS011;65395;53.168;18.156;2023-07-20T09:26:46;3.40;;;1.30;;
76552;SDS011;65395;53.168;18.156;2023-07-20T09:29:17;2.60;;;1.20;;
76552;SDS011;65395;53.168;18.156;2023-07-20T09:34:28;1.30;;;1.10;;
76552;SDS011;65395;53.168;18.156;2023-07-20T09:36:57;1.10;;;1.00;;
76552;SDS011;65395;53.168;18.156;2023-07-20T09:39:25;2.30;;;1.10;;
76552;SDS011;65395;53.168;18.156;2023-07-20T09:41:52;2.50;;;1.10;;
76552;SDS011;65395;53.168;18.156;2023-07-20T09:44:19;1.30;;;1.20;;
76552;SDS011;65395;53.168;18.156;2023-07-20T09:46:47;2.80;;;1.00;;
76552;SDS011;65395;53.168;18.156;2023-07-20T09:49:16;3.40;;;1.30;;
76552;SDS011;65395;53.168;18.156;2023-07-20T09:51:44;1.20;;;1.10;;
76552;SDS011;65395;53.168;18.156;2023-07-20T09:54:13;2.50;;;1.10;;
76552;SDS011;65395;53.168;18.156;2023-07-20T09:56:40;2.20;;;1.00;;
76552;SDS011;65395;53.168;18.156;2023-07-20T09:59:08;1.60;;;1.00;;
76552;SDS011;65395;53.168;18.156;2023-07-20T10:01:35;1.10;;;0.90;;
76552;SDS011;65395;53.168;18.156;2023-07-20T10:04:07;2.00;;;0.90;;
76552;SDS011;65395;53.168;18.156;2023-07-20T10:06:36;1.60;;;0.90;;
76552;SDS011;65395;53.168;18.156;2023-07-20T10:09:08;1.30;;;0.80;;
76552;SDS011;65395;53.168;18.156;2023-07-20T10:11:39;2.10;;;0.90;;
76552;SDS011;65395;53.168;18.156;2023-07-20T10:14:09;3.10;;;0.80;;
76552;SDS011;65395;53.168;18.156;2023-07-20T10:16:42;2.50;;;0.80;;
76552;SDS011;65395;53.168;18.156;2023-07-20T10:19:21;6.00;;;0.90;;
76552;SDS011;65395;53.168;18.156;2023-07-20T10:21:55;1.20;;;0.80;;
76552;SDS011;65395;53.168;18.156;2023-07-20T10:24:26;1.00;;;0.80;;
76552;SDS011;65395;53.168;18.156;2023-07-20T10:26:54;0.90;;;0.80;;
76552;SDS011;65395;53.168;18.156;2023-07-20T10:29:22;0.80;;;0.80;;
76552;SDS011;65395;53.168;18.156;2023-07-20T10:31:50;1.70;;;0.70;;
76552;SDS011;65395;53.168;18.156;2023-07-20T10:34:17;1.50;;;0.80;;
76552;SDS011;65395;53.168;18.156;2023-07-20T10:36:44;2.00;;;0.80;;
76552;SDS011;65395;53.168;18.156;2023-07-20T10:39:21;2.50;;;1.10;;
76552;SDS011;65395;53.168;18.156;2023-07-20T10:41:53;1.90;;;0.80;;
76552;SDS011;65395;53.168;18.156;2023-07-20T10:44:27;2.10;;;0.80;;
76552;SDS011;65395;53.168;18.156;2023-07-20T10:47:01;1.20;;;0.80;;
76552;SDS011;65395;53.168;18.156;2023-07-20T10:49:33;1.30;;;1.00;;
76552;SDS011;65395;53.168;18.156;2023-07-20T10:52:04;1.30;;;0.80;;
76552;SDS011;65395;53.168;18.156;2023-07-20T10:54:33;2.30;;;1.10;;
76552;SDS011;65395;53.168;18.156;2023-07-20T10:59:47;2.00;;;1.00;;
76552;SDS011;65395;53.168;18.156;2023-07-20T11:02:17;2.20;;;0.90;;
76552;SDS011;65395;53.168;18.156;2023-07-20T11:04:46;1.50;;;1.10;;
76552;SDS011;65395;53.168;18.156;2023-07-20T11:07:15;1.00;;;0.90;;
76552;SDS011;65395;53.168;18.156;2023-07-20T11:09:43;1.50;;;1.00;;
76552;SDS011;65395;53.168;18.156;2023-07-20T11:12:11;1.30;;;0.90;;
76552;SDS011;65395;53.168;18.156;2023-07-20T11:14:41;1.80;;;1.00;;
76552;SDS011;65395;53.168;18.156;2023-07-20T11:17:11;1.70;;;0.90;;
76552;SDS011;65395;53.168;18.156;2023-07-20T11:19:39;1.10;;;0.90;;
76552;SDS011;65395;53.168;18.156;2023-07-20T11:22:07;1.40;;;1.30;;
76552;SDS011;65395;53.168;18.156;2023-07-20T11:24:34;1.10;;;1.00;;
76552;SDS011;65395;53.168;18.156;2023-07-20T11:27:01;1.00;;;0.90;;
76552;SDS011;65395;53.168;18.156;2023-07-20T11:29:28;1.50;;;1.10;;
76552;SDS011;65395;53.168;18.156;2023-07-20T11:31:55;1.20;;;0.90;;
76552;SDS011;65395;53.168;18.156;2023-07-20T11:34:23;1.90;;;1.00;;
76552;SDS011;65395;53.168;18.156;2023-07-20T11:36:50;1.80;;;0.90;;
76552;SDS011;65395;53.168;18.156;2023-07-20T11:39:18;1.30;;;1.00;;
76552;SDS011;65395;53.168;18.156;2023-07-20T11:41:48;2.90;;;1.40;;
76552;SDS011;65395;53.168;18.156;2023-07-20T11:44:18;1.20;;;1.10;;
76552;SDS011;65395;53.168;18.156;2023-07-20T11:46:47;2.10;;;0.80;;
76552;SDS011;65395;53.168;18.156;2023-07-20T11:49:13;9.40;;;1.50;;
76552;SDS011;65395;53.168;18.156;2023-07-20T11:51:40;2.20;;;1.00;;
76552;SDS011;65395;53.168;18.156;2023-07-20T11:54:08;4.60;;;0.90;;
76552;SDS011;65395;53.168;18.156;2023-07-20T11:56:36;4.30;;;0.70;;
76552;SDS011;65395;53.168;18.156;2023-07-20T11:59:03;4.10;;;0.80;;
76552;SDS011;65395;53.168;18.156;2023-07-20T12:01:30;3.20;;;0.90;;
76552;SDS011;65395;53.168;18.156;2023-07-20T12:03:59;7.20;;;1.10;;
76552;SDS011;65395;53.168;18.156;2023-07-20T12:06:28;5.90;;;1.00;;
76552;SDS011;65395;53.168;18.156;2023-07-20T12:08:56;2.60;;;1.00;;
76552;SDS011;65395;53.168;18.156;2023-07-20T12:14:03;2.30;;;1.00;;
76552;SDS011;65395;53.168;18.156;2023-07-20T12:16:30;1.60;;;0.90;;
76552;SDS011;65395;53.168;18.156;2023-07-20T12:19:01;2.90;;;1.00;;
76552;SDS011;65395;53.168;18.156;2023-07-20T12:21:30;3.30;;;1.10;;
76552;SDS011;65395;53.168;18.156;2023-07-20T12:23:58;7.90;;;1.00;;
76552;SDS011;65395;53.168;18.156;2023-07-20T12:26:25;3.40;;;1.20;;
76552;SDS011;65395;53.168;18.156;2023-07-20T12:28:52;5.00;;;1.10;;
76552;SDS011;65395;53.168;18.156;2023-07-20T12:31:19;1.80;;;1.10;;
76552;SDS011;65395;53.168;18.156;2023-07-20T12:33:47;3.00;;;1.10;;
76552;SDS011;65395;53.168;18.156;2023-07-20T12:36:15;2.30;;;1.10;;
76552;SDS011;65395;53.168;18.156;2023-07-20T12:38:42;1.80;;;0.80;;
76552;SDS011;65395;53.168;18.156;2023-07-20T12:41:09;3.00;;;1.10;;
76552;SDS011;65395;53.168;18.156;2023-07-20T12:43:40;2.30;;;0.90;;
76552;SDS011;65395;53.168;18.156;2023-07-20T12:46:08;2.50;;;0.70;;
76552;SDS011;65395;53.168;18.156;2023-07-20T12:48:36;3.10;;;0.80;;
76552;SDS011;65395;53.168;18.156;2023-07-20T12:51:04;2.40;;;0.70;;
76552;SDS011;65395;53.168;18.156;2023-07-20T12:53:31;2.00;;;1.20;;
76552;SDS011;65395;53.168;18.156;2023-07-20T12:55:59;1.00;;;0.80;;
76552;SDS011;65395;53.168;18.156;2023-07-20T12:58:26;3.20;;;0.90;;
76552;SDS011;65395;53.168;18.156;2023-07-20T13:00:53;0.90;;;0.80;;
76552;SDS011;65395;53.168;18.156;2023-07-20T13:03:20;1.50;;;0.80;;
76552;SDS011;65395;53.168;18.156;2023-07-20T13:05:47;1.60;;;0.90;;
76552;SDS011;65395;53.168;18.156;2023-07-20T13:08:14;2.50;;;1.00;;
76552;SDS011;65395;53.168;18.156;2023-07-20T13:10:43;2.90;;;1.00;;
76552;SDS011;65395;53.168;18.156;2023-07-20T13:13:10;1.80;;;0.90;;
76552;SDS011;65395;53.168;18.156;2023-07-20T13:15:44;1.10;;;0.70;;
76552;SDS011;65395;53.168;18.156;2023-07-20T13:18:12;1.30;;;1.10;;
76552;SDS011;65395;53.168;18.156;2023-07-20T13:20:39;2.00;;;1.20;;
76552;SDS011;65395;53.168;18.156;2023-07-20T13:23:06;2.10;;;0.90;;
76552;SDS011;65395;53.168;18.156;2023-07-20T13:25:33;1.80;;;0.80;;
76552;SDS011;65395;53.168;18.156;2023-07-20T13:28:00;1.10;;;0.80;;
76552;SDS011;65395;53.168;18.156;2023-07-20T13:30:26;1.40;;;0.90;;
76552;SDS011;65395;53.168;18.156;2023-07-20T13:32:53;1.30;;;0.80;;
76552;SDS011;65395;53.168;18.156;2023-07-20T13:35:20;0.80;;;0.80;;
76552;SDS011;65395;53.168;18.156;2023-07-20T13:37:47;0.90;;;0.80;;
76552;SDS011;65395;53.168;18.156;2023-07-20T13:40:15;0.70;;;0.70;;
76552;SDS011;65395;53.168;18.156;2023-07-20T13:42:43;0.80;;;0.80;;
76552;SDS011;65395;53.168;18.156;2023-07-20T13:45:09;1.10;;;0.70;;
76552;SDS011;65395;53.168;18.156;2023-07-20T13:47:36;0.90;;;0.80;;
76552;SDS011;65395;53.168;18.156;2023-07-20T13:50:03;0.80;;;0.80;;
76552;SDS011;65395;53.168;18.156;2023-07-20T13:52:31;0.70;;;0.70;;
76552;SDS011;65395;53.168;18.156;2023-07-20T13:54:57;1.00;;;0.90;;
76552;SDS011;65395;53.168;18.156;2023-07-20T13:57:24;2.30;;;0.80;;
76552;SDS011;65395;53.168;18.156;2023-07-20T13:59:51;0.70;;;0.70;;
76552;SDS011;65395;53.168;18.156;2023-07-20T14:02:17;0.80;;;0.80;;
76552;SDS011;65395;53.168;18.156;2023-07-20T14:04:44;0.70;;;0.70;;
76552;SDS011;65395;53.168;18.156;2023-07-20T14:07:11;2.80;;;1.10;;
76552;SDS011;65395;53.168;18.156;2023-07-20T14:09:39;1.10;;;1.00;;
76552;SDS011;65395;53.168;18.156;2023-07-20T14:12:06;0.80;;;0.80;;
76552;SDS011;65395;53.168;18.156;2023-07-20T14:14:34;0.80;;;0.80;;
76552;SDS011;65395;53.168;18.156;2023-07-20T14:17:01;2.10;;;1.00;;
76552;SDS011;65395;53.168;18.156;2023-07-20T14:19:28;0.90;;;0.90;;
76552;SDS011;65395;53.168;18.156;2023-07-20T14:21:55;3.00;;;0.80;;
76552;SDS011;65395;53.168;18.156;2023-07-20T14:24:21;0.90;;;0.80;;
76552;SDS011;65395;53.168;18.156;2023-07-20T14:26:48;0.90;;;0.90;;
76552;SDS011;65395;53.168;18.156;2023-07-20T14:29:15;1.10;;;1.00;;
76552;SDS011;65395;53.168;18.156;2023-07-20T14:31:44;1.40;;;0.90;;
76552;SDS011;65395;53.168;18.156;2023-07-20T14:34:11;0.80;;;0.80;;
76552;SDS011;65395;53.168;18.156;2023-07-20T14:36:38;0.90;;;0.90;;
76552;SDS011;65395;53.168;18.156;2023-07-20T14:39:04;0.60;;;0.60;;
76552;SDS011;65395;53.168;18.156;2023-07-20T14:41:31;0.80;;;0.80;;
76552;SDS011;65395;53.168;18.156;2023-07-20T14:43:58;0.90;;;0.90;;
76552;SDS011;65395;53.168;18.156;2023-07-20T14:46:24;2.60;;;0.80;;
76552;SDS011;65395;53.168;18.156;2023-07-20T14:48:51;2.50;;;0.70;;
76552;SDS011;65395;53.168;18.156;2023-07-20T14:51:18;1.00;;;0.70;;